sensor_id;sensor_type;location;lat;lon;timestamp;pressure;altitude;pressure_sealevel;temperature;humidity
29815;BME280;16708;50.426;7.664;2022-09-09T00:02:25;981.52;;;16.72;100.00
29815;BME280;16708;50.426;7.664;2022-09-09T00:07:20;981.49;;;16.78;100.00
29815;BME280;16708;50.426;7.664;2022-09-09T00:12:14;981.44;;;16.68;100.00
29815;BME280;16708;50.426;7.664;2022-09-09T00:17:09;981.39;;;16.55;100.00
29815;BME280;16708;50.426;7.664;2022-09-09T00:22:03;981.45;;;16.60;100.00
29815;BME280;16708;50.426;7.664;2022-09-09T00:36:47;981.42;;;16.50;100.00
29815;BME280;16708;50.426;7.664;2022-09-09T00:51:30;981.42;;;16.21;100.00
29815;BME280;16708;50.426;7.664;2022-09-09T01:01:19;981.54;;;16.09;100.00
29815;BME280;16708;50.426;7.664;2022-09-09T01:06:14;981.41;;;16.22;100.00
29815;BME280;16708;50.426;7.664;2022-09-09T01:16:03;981.42;;;16.20;100.00
29815;BME280;16708;50.426;7.664;2022-09-09T01:25:53;981.37;;;16.13;100.00
29815;BME280;16708;50.426;7.664;2022-09-09T01:30:47;981.37;;;16.18;100.00
29815;BME280;16708;50.426;7.664;2022-09-09T01:35:41;981.30;;;16.19;100.00
29815;BME280;16708;50.426;7.664;2022-09-09T01:40:36;981.47;;;16.15;100.00
29815;BME280;16708;50.426;7.664;2022-09-09T01:45:31;981.46;;;16.14;100.00
29815;BME280;16708;50.426;7.664;2022-09-09T01:50:25;981.46;;;16.20;100.00
29815;BME280;16708;50.426;7.664;2022-09-09T01:55:19;981.51;;;16.18;100.00
29815;BME280;16708;50.426;7.664;2022-09-09T02:05:09;981.54;;;16.23;100.00
29815;BME280;16708;50.426;7.664;2022-09-09T02:10:04;981.58;;;16.21;100.00
29815;BME280;16708;50.426;7.664;2022-09-09T02:14:59;981.52;;;16.22;100.00
29815;BME280;16708;50.426;7.664;2022-09-09T02:19:54;981.49;;;16.21;100.00
29815;BME280;16708;50.426;7.664;2022-09-09T02:24:48;981.56;;;16.05;100.00
29815;BME280;16708;50.426;7.664;2022-09-09T02:29:42;981.46;;;16.28;100.00
29815;BME280;16708;50.426;7.664;2022-09-09T02:34:37;981.42;;;16.23;100.00
29815;BME280;16708;50.426;7.664;2022-09-09T02:39:31;981.30;;;16.35;100.00
29815;BME280;16708;50.426;7.664;2022-09-09T02:44:26;981.25;;;16.35;100.00
29815;BME280;16708;50.426;7.664;2022-09-09T02:49:21;981.16;;;16.28;100.00
29815;BME280;16708;50.426;7.664;2022-09-09T02:54:15;981.20;;;16.28;100.00
29815;BME280;16708;50.426;7.664;2022-09-09T02:59:09;981.28;;;16.35;100.00
29815;BME280;16708;50.426;7.664;2022-09-09T03:04:03;981.25;;;16.33;100.00
29815;BME280;16708;50.426;7.664;2022-09-09T03:08:58;981.22;;;16.36;100.00
29815;BME280;16708;50.426;7.664;2022-09-09T03:13:53;981.25;;;16.38;100.00
29815;BME280;16708;50.426;7.664;2022-09-09T03:18:47;981.34;;;16.34;100.00
29815;BME280;16708;50.426;7.664;2022-09-09T03:23:42;981.25;;;16.36;100.00
29815;BME280;16708;50.426;7.664;2022-09-09T03:28:36;981.32;;;16.36;100.00
29815;BME280;16708;50.426;7.664;2022-09-09T03:33:31;981.37;;;16.33;100.00
29815;BME280;16708;50.426;7.664;2022-09-09T03:38:26;981.38;;;16.23;100.00
29815;BME280;16708;50.426;7.664;2022-09-09T03:43:21;981.41;;;16.28;100.00
29815;BME280;16708;50.426;7.664;2022-09-09T03:48:15;981.36;;;16.25;100.00
29815;BME280;16708;50.426;7.664;2022-09-09T03:53:09;981.39;;;16.25;100.00
29815;BME280;16708;50.426;7.664;2022-09-09T03:58:03;981.44;;;16.19;100.00
29815;BME280;16708;50.426;7.664;2022-09-09T04:02:58;981.48;;;16.10;100.00
29815;BME280;16708;50.426;7.664;2022-09-09T04:07:53;981.49;;;16.12;100.00
29815;BME280;16708;50.426;7.664;2022-09-09T04:12:47;981.31;;;16.16;100.00
29815;BME280;16708;50.426;7.664;2022-09-09T04:17:42;981.30;;;16.06;100.00
29815;BME280;16708;50.426;7.664;2022-09-09T04:22:37;981.37;;;16.05;100.00
29815;BME280;16708;50.426;7.664;2022-09-09T04:27:32;981.45;;;16.05;100.00
29815;BME280;16708;50.426;7.664;2022-09-09T04:32:26;981.51;;;16.04;100.00
29815;BME280;16708;50.426;7.664;2022-09-09T04:37:21;981.47;;;15.98;100.00
29815;BME280;16708;50.426;7.664;2022-09-09T04:42:16;981.62;;;15.93;100.00
29815;BME280;16708;50.426;7.664;2022-09-09T04:47:10;981.56;;;15.94;100.00
29815;BME280;16708;50.426;7.664;2022-09-09T04:52:04;981.69;;;15.99;100.00
29815;BME280;16708;50.426;7.664;2022-09-09T04:56:59;981.68;;;15.90;100.00
29815;BME280;16708;50.426;7.664;2022-09-09T05:01:54;981.58;;;15.93;100.00
29815;BME280;16708;50.426;7.664;2022-09-09T05:06:49;981.64;;;15.80;100.00
29815;BME280;16708;50.426;7.664;2022-09-09T05:11:43;981.69;;;15.80;100.00
29815;BME280;16708;50.426;7.664;2022-09-09T05:16:41;981.79;;;15.71;100.00
29815;BME280;16708;50.426;7.664;2022-09-09T05:21:31;981.76;;;15.72;100.00
29815;BME280;16708;50.426;7.664;2022-09-09T05:26:25;981.78;;;15.80;100.00
29815;BME280;16708;50.426;7.664;2022-09-09T05:31:20;981.71;;;15.90;100.00
29815;BME280;16708;50.426;7.664;2022-09-09T05:36:15;981.72;;;15.96;100.00
29815;BME280;16708;50.426;7.664;2022-09-09T05:41:10;981.74;;;16.02;100.00
29815;BME280;16708;50.426;7.664;2022-09-09T05:46:05;981.76;;;16.05;100.00
29815;BME280;16708;50.426;7.664;2022-09-09T05:50:59;981.72;;;16.05;100.00
29815;BME280;16708;50.426;7.664;2022-09-09T05:55:54;981.77;;;16.05;100.00
29815;BME280;16708;50.426;7.664;2022-09-09T06:00:49;981.78;;;16.06;100.00
29815;BME280;16708;50.426;7.664;2022-09-09T06:05:43;981.83;;;16.20;100.00
29815;BME280;16708;50.426;7.664;2022-09-09T06:10:37;981.79;;;16.21;100.00
29815;BME280;16708;50.426;7.664;2022-09-09T06:15:31;981.81;;;16.22;100.00
29815;BME280;16708;50.426;7.664;2022-09-09T06:20:26;981.85;;;16.02;100.00
29815;BME280;16708;50.426;7.664;2022-09-09T06:25:21;981.84;;;16.22;100.00
29815;BME280;16708;50.426;7.664;2022-09-09T06:30:16;981.72;;;16.18;100.00
29815;BME280;16708;50.426;7.664;2022-09-09T06:35:10;981.80;;;16.36;100.00
29815;BME280;16708;50.426;7.664;2022-09-09T06:40:03;981.68;;;16.56;100.00
29815;BME280;16708;50.426;7.664;2022-09-09T06:44:58;981.66;;;16.78;100.00
29815;BME280;16708;50.426;7.664;2022-09-09T06:49:52;981.73;;;16.84;100.00
29815;BME280;16708;50.426;7.664;2022-09-09T06:54:47;981.60;;;17.14;100.00
29815;BME280;16708;50.426;7.664;2022-09-09T06:59:42;981.82;;;17.17;100.00
29815;BME280;16708;50.426;7.664;2022-09-09T07:04:36;981.77;;;17.25;100.00
29815;BME280;16708;50.426;7.664;2022-09-09T07:09:30;981.79;;;17.58;100.00
29815;BME280;16708;50.426;7.664;2022-09-09T07:14:25;981.89;;;17.39;100.00
29815;BME280;16708;50.426;7.664;2022-09-09T07:19:20;981.89;;;17.10;100.00
29815;BME280;16708;50.426;7.664;2022-09-09T07:24:15;981.81;;;17.50;100.00
29815;BME280;16708;50.426;7.664;2022-09-09T07:29:09;981.85;;;17.44;100.00
29815;BME280;16708;50.426;7.664;2022-09-09T07:34:04;981.83;;;17.77;100.00
29815;BME280;16708;50.426;7.664;2022-09-09T07:38:58;981.88;;;17.51;100.00
29815;BME280;16708;50.426;7.664;2022-09-09T07:43:53;981.97;;;17.73;100.00
29815;BME280;16708;50.426;7.664;2022-09-09T07:48:48;981.91;;;18.03;100.00
29815;BME280;16708;50.426;7.664;2022-09-09T07:53:42;981.85;;;17.91;100.00
29815;BME280;16708;50.426;7.664;2022-09-09T07:58:37;981.98;;;18.06;100.00
29815;BME280;16708;50.426;7.664;2022-09-09T08:03:32;982.05;;;18.81;100.00
29815;BME280;16708;50.426;7.664;2022-09-09T08:08:26;982.40;;;18.38;100.00
29815;BME280;16708;50.426;7.664;2022-09-09T08:13:21;982.19;;;17.69;100.00
29815;BME280;16708;50.426;7.664;2022-09-09T08:18:16;982.15;;;18.41;100.00
29815;BME280;16708;50.426;7.664;2022-09-09T08:23:10;982.26;;;18.02;100.00
29815;BME280;16708;50.426;7.664;2022-09-09T08:28:05;982.25;;;18.09;100.00
29815;BME280;16708;50.426;7.664;2022-09-09T08:33:00;982.36;;;18.10;100.00
29815;BME280;16708;50.426;7.664;2022-09-09T08:37:55;982.36;;;18.10;100.00
29815;BME280;16708;50.426;7.664;2022-09-09T08:57:33;982.27;;;18.59;95.33
29815;BME280;16708;50.426;7.664;2022-09-09T09:07:23;982.42;;;18.97;88.39
29815;BME280;16708;50.426;7.664;2022-09-09T09:17:12;982.40;;;18.12;97.53
29815;BME280;16708;50.426;7.664;2022-09-09T09:22:06;982.38;;;18.14;98.53
29815;BME280;16708;50.426;7.664;2022-09-09T09:27:00;982.46;;;18.40;93.74
29815;BME280;16708;50.426;7.664;2022-09-09T09:31:55;982.40;;;18.47;89.72
29815;BME280;16708;50.426;7.664;2022-09-09T09:46:39;982.38;;;19.18;88.47
29815;BME280;16708;50.426;7.664;2022-09-09T09:51:34;982.31;;;19.00;81.96
29815;BME280;16708;50.426;7.664;2022-09-09T10:01:23;982.30;;;19.14;78.62
29815;BME280;16708;50.426;7.664;2022-09-09T10:25:53;982.22;;;19.44;71.33
29815;BME280;16708;50.426;7.664;2022-09-09T10:30:48;982.24;;;19.53;72.08
29815;BME280;16708;50.426;7.664;2022-09-09T10:55:22;982.08;;;20.03;70.68
29815;BME280;16708;50.426;7.664;2022-09-09T11:00:16;982.14;;;22.14;58.92
29815;BME280;16708;50.426;7.664;2022-09-09T11:05:11;982.08;;;23.14;56.04
29815;BME280;16708;50.426;7.664;2022-09-09T11:10:06;982.16;;;22.76;57.72
29815;BME280;16708;50.426;7.664;2022-09-09T11:15:02;982.08;;;23.73;50.31
29815;BME280;16708;50.426;7.664;2022-09-09T11:19:57;982.04;;;21.33;62.13
29815;BME280;16708;50.426;7.664;2022-09-09T11:24:51;982.11;;;20.95;66.31
29815;BME280;16708;50.426;7.664;2022-09-09T11:59:15;981.94;;;21.86;58.27
29815;BME280;16708;50.426;7.664;2022-09-09T12:04:09;981.99;;;23.64;54.46
29815;BME280;16708;50.426;7.664;2022-09-09T12:09:04;981.96;;;22.67;52.98
29815;BME280;16708;50.426;7.664;2022-09-09T12:18:54;981.89;;;24.20;44.84
29815;BME280;16708;50.426;7.664;2022-09-09T12:23:49;981.86;;;25.75;40.79
29815;BME280;16708;50.426;7.664;2022-09-09T12:28:45;981.96;;;25.75;39.98
29815;BME280;16708;50.426;7.664;2022-09-09T12:33:39;981.91;;;23.59;45.73
29815;BME280;16708;50.426;7.664;2022-09-09T12:38:34;981.71;;;25.47;42.25
29815;BME280;16708;50.426;7.664;2022-09-09T12:48:24;981.71;;;26.57;39.08
29815;BME280;16708;50.426;7.664;2022-09-09T12:53:19;981.65;;;21.92;50.01
29815;BME280;16708;50.426;7.664;2022-09-09T12:58:15;981.57;;;22.17;49.95
29815;BME280;16708;50.426;7.664;2022-09-09T13:08:03;981.58;;;27.83;36.54
29815;BME280;16708;50.426;7.664;2022-09-09T13:12:55;981.58;;;27.25;37.74
29815;BME280;16708;50.426;7.664;2022-09-09T13:17:50;981.53;;;27.15;36.83
29815;BME280;16708;50.426;7.664;2022-09-09T13:22:45;981.52;;;28.62;34.25
29815;BME280;16708;50.426;7.664;2022-09-09T13:32:32;981.18;;;25.22;39.97
29815;BME280;16708;50.426;7.664;2022-09-09T13:37:26;981.23;;;23.89;42.79
29815;BME280;16708;50.426;7.664;2022-09-09T13:42:20;981.08;;;22.82;46.48
29815;BME280;16708;50.426;7.664;2022-09-09T13:52:06;981.09;;;21.58;51.71
29815;BME280;16708;50.426;7.664;2022-09-09T13:57:00;981.01;;;21.47;52.70
29815;BME280;16708;50.426;7.664;2022-09-09T14:01:54;981.06;;;21.39;53.08
29815;BME280;16708;50.426;7.664;2022-09-09T14:06:48;980.97;;;21.44;54.49
29815;BME280;16708;50.426;7.664;2022-09-09T14:11:42;980.94;;;21.60;53.79
29815;BME280;16708;50.426;7.664;2022-09-09T14:16:36;980.90;;;22.41;52.04
29815;BME280;16708;50.426;7.664;2022-09-09T14:21:31;980.81;;;22.75;53.05
29815;BME280;16708;50.426;7.664;2022-09-09T14:26:26;980.98;;;22.46;50.83
29815;BME280;16708;50.426;7.664;2022-09-09T14:31:22;980.97;;;21.13;56.89
29815;BME280;16708;50.426;7.664;2022-09-09T14:36:15;980.85;;;20.27;64.63
29815;BME280;16708;50.426;7.664;2022-09-09T14:41:08;981.33;;;19.28;72.80
29815;BME280;16708;50.426;7.664;2022-09-09T14:46:02;981.64;;;19.11;81.83
29815;BME280;16708;50.426;7.664;2022-09-09T14:50:59;982.29;;;16.15;100.00
29815;BME280;16708;50.426;7.664;2022-09-09T14:55:50;982.68;;;16.16;100.00
29815;BME280;16708;50.426;7.664;2022-09-09T15:00:43;982.67;;;17.19;100.00
29815;BME280;16708;50.426;7.664;2022-09-09T15:05:37;982.46;;;17.64;100.00
29815;BME280;16708;50.426;7.664;2022-09-09T15:10:32;982.43;;;17.17;100.00
29815;BME280;16708;50.426;7.664;2022-09-09T15:15:26;982.32;;;16.70;100.00
29815;BME280;16708;50.426;7.664;2022-09-09T15:20:21;982.16;;;16.94;100.00
29815;BME280;16708;50.426;7.664;2022-09-09T15:25:16;982.21;;;16.82;100.00
29815;BME280;16708;50.426;7.664;2022-09-09T15:30:10;982.22;;;17.09;100.00
29815;BME280;16708;50.426;7.664;2022-09-09T15:35:05;982.25;;;16.76;100.00
29815;BME280;16708;50.426;7.664;2022-09-09T15:40:00;982.22;;;17.17;100.00
29815;BME280;16708;50.426;7.664;2022-09-09T15:44:54;982.17;;;17.53;100.00
29815;BME280;16708;50.426;7.664;2022-09-09T15:49:49;982.20;;;17.43;100.00
29815;BME280;16708;50.426;7.664;2022-09-09T15:54:43;982.09;;;17.65;100.00
29815;BME280;16708;50.426;7.664;2022-09-09T15:59:37;982.07;;;17.66;100.00
29815;BME280;16708;50.426;7.664;2022-09-09T16:04:32;981.97;;;18.07;100.00
29815;BME280;16708;50.426;7.664;2022-09-09T16:09:27;981.93;;;18.08;100.00
29815;BME280;16708;50.426;7.664;2022-09-09T16:14:22;981.93;;;17.96;100.00
29815;BME280;16708;50.426;7.664;2022-09-09T16:19:18;981.93;;;17.47;100.00
29815;BME280;16708;50.426;7.664;2022-09-09T16:24:11;982.03;;;17.70;100.00
29815;BME280;16708;50.426;7.664;2022-09-09T16:29:05;982.11;;;17.07;100.00
29815;BME280;16708;50.426;7.664;2022-09-09T16:34:02;982.00;;;17.24;100.00
29815;BME280;16708;50.426;7.664;2022-09-09T16:38:53;981.97;;;17.19;100.00
29815;BME280;16708;50.426;7.664;2022-09-09T16:43:48;981.93;;;16.88;100.00
29815;BME280;16708;50.426;7.664;2022-09-09T16:48:43;981.92;;;16.97;100.00
29815;BME280;16708;50.426;7.664;2022-09-09T16:53:37;982.08;;;16.77;100.00
29815;BME280;16708;50.426;7.664;2022-09-09T16:58:32;982.24;;;16.64;100.00
29815;BME280;16708;50.426;7.664;2022-09-09T17:03:26;982.27;;;16.55;100.00
29815;BME280;16708;50.426;7.664;2022-09-09T17:08:21;982.39;;;16.51;100.00
29815;BME280;16708;50.426;7.664;2022-09-09T17:13:15;982.29;;;16.24;100.00
29815;BME280;16708;50.426;7.664;2022-09-09T17:18:10;982.35;;;16.36;100.00
29815;BME280;16708;50.426;7.664;2022-09-09T17:23:05;982.43;;;16.44;100.00
29815;BME280;16708;50.426;7.664;2022-09-09T17:27:59;982.60;;;16.28;100.00
29815;BME280;16708;50.426;7.664;2022-09-09T17:32:54;982.67;;;16.28;100.00
29815;BME280;16708;50.426;7.664;2022-09-09T17:37:49;982.61;;;16.23;100.00
29815;BME280;16708;50.426;7.664;2022-09-09T17:42:44;982.69;;;16.20;100.00
29815;BME280;16708;50.426;7.664;2022-09-09T17:47:38;982.61;;;16.39;100.00
29815;BME280;16708;50.426;7.664;2022-09-09T17:52:33;982.59;;;16.12;100.00
29815;BME280;16708;50.426;7.664;2022-09-09T17:57:27;982.68;;;16.25;100.00
29815;BME280;16708;50.426;7.664;2022-09-09T18:02:22;982.70;;;16.12;100.00
29815;BME280;16708;50.426;7.664;2022-09-09T18:07:17;982.77;;;15.84;100.00
29815;BME280;16708;50.426;7.664;2022-09-09T18:12:11;982.77;;;15.65;100.00
29815;BME280;16708;50.426;7.664;2022-09-09T18:17:05;982.78;;;15.87;100.00
29815;BME280;16708;50.426;7.664;2022-09-09T18:22:00;982.78;;;15.75;100.00
29815;BME280;16708;50.426;7.664;2022-09-09T18:26:55;982.83;;;15.60;100.00
29815;BME280;16708;50.426;7.664;2022-09-09T18:31:50;982.72;;;15.70;100.00
29815;BME280;16708;50.426;7.664;2022-09-09T18:36:44;982.89;;;15.72;100.00
29815;BME280;16708;50.426;7.664;2022-09-09T18:41:39;982.93;;;15.57;100.00
29815;BME280;16708;50.426;7.664;2022-09-09T18:46:33;983.06;;;15.41;100.00
29815;BME280;16708;50.426;7.664;2022-09-09T18:51:28;983.06;;;15.64;100.00
29815;BME280;16708;50.426;7.664;2022-09-09T18:56:23;983.02;;;15.22;100.00
29815;BME280;16708;50.426;7.664;2022-09-09T19:01:17;983.01;;;15.42;100.00
29815;BME280;16708;50.426;7.664;2022-09-09T19:06:12;982.97;;;15.52;100.00
29815;BME280;16708;50.426;7.664;2022-09-09T19:11:06;983.03;;;15.50;100.00
29815;BME280;16708;50.426;7.664;2022-09-09T19:16:01;983.03;;;15.61;100.00
29815;BME280;16708;50.426;7.664;2022-09-09T19:20:56;983.08;;;15.47;100.00
29815;BME280;16708;50.426;7.664;2022-09-09T19:25:50;983.09;;;15.46;100.00
29815;BME280;16708;50.426;7.664;2022-09-09T19:30:45;983.11;;;15.33;100.00
29815;BME280;16708;50.426;7.664;2022-09-09T19:35:40;983.12;;;15.37;100.00
29815;BME280;16708;50.426;7.664;2022-09-09T19:40:35;983.21;;;15.33;100.00
29815;BME280;16708;50.426;7.664;2022-09-09T19:45:29;983.10;;;15.53;100.00
29815;BME280;16708;50.426;7.664;2022-09-09T19:50:23;983.18;;;15.29;100.00
29815;BME280;16708;50.426;7.664;2022-09-09T19:55:17;983.21;;;15.10;100.00
29815;BME280;16708;50.426;7.664;2022-09-09T20:00:12;983.23;;;15.06;100.00
29815;BME280;16708;50.426;7.664;2022-09-09T20:05:06;983.29;;;14.86;100.00
29815;BME280;16708;50.426;7.664;2022-09-09T20:10:01;983.27;;;15.06;100.00
29815;BME280;16708;50.426;7.664;2022-09-09T20:14:55;983.33;;;14.87;100.00
29815;BME280;16708;50.426;7.664;2022-09-09T20:19:50;983.40;;;14.98;100.00
29815;BME280;16708;50.426;7.664;2022-09-09T20:24:45;983.41;;;14.91;100.00
29815;BME280;16708;50.426;7.664;2022-09-09T20:29:40;983.44;;;14.90;100.00
29815;BME280;16708;50.426;7.664;2022-09-09T20:34:33;983.36;;;14.94;100.00
29815;BME280;16708;50.426;7.664;2022-09-09T20:39:28;983.31;;;14.90;100.00
29815;BME280;16708;50.426;7.664;2022-09-09T20:44:23;983.33;;;14.88;100.00
29815;BME280;16708;50.426;7.664;2022-09-09T20:49:17;983.40;;;14.91;100.00
29815;BME280;16708;50.426;7.664;2022-09-09T20:54:12;983.33;;;14.90;100.00
29815;BME280;16708;50.426;7.664;2022-09-09T20:59:06;983.35;;;14.86;100.00
29815;BME280;16708;50.426;7.664;2022-09-09T21:04:01;983.39;;;15.12;100.00
29815;BME280;16708;50.426;7.664;2022-09-09T21:08:55;983.38;;;15.09;100.00
29815;BME280;16708;50.426;7.664;2022-09-09T21:13:50;983.36;;;14.89;100.00
29815;BME280;16708;50.426;7.664;2022-09-09T21:18:44;983.38;;;15.06;100.00
29815;BME280;16708;50.426;7.664;2022-09-09T21:23:39;983.40;;;14.98;100.00
29815;BME280;16708;50.426;7.664;2022-09-09T21:28:33;983.36;;;14.84;100.00
29815;BME280;16708;50.426;7.664;2022-09-09T21:33:28;983.41;;;14.97;100.00
29815;BME280;16708;50.426;7.664;2022-09-09T21:38:23;983.39;;;15.02;100.00
29815;BME280;16708;50.426;7.664;2022-09-09T21:43:18;983.35;;;15.04;100.00
29815;BME280;16708;50.426;7.664;2022-09-09T21:48:12;983.41;;;14.95;100.00
29815;BME280;16708;50.426;7.664;2022-09-09T21:53:07;983.32;;;14.96;100.00
29815;BME280;16708;50.426;7.664;2022-09-09T21:58:02;983.41;;;14.97;100.00
29815;BME280;16708;50.426;7.664;2022-09-09T22:02:56;983.47;;;14.90;100.00
29815;BME280;16708;50.426;7.664;2022-09-09T22:07:51;983.50;;;14.92;100.00
29815;BME280;16708;50.426;7.664;2022-09-09T22:12:46;983.39;;;14.87;100.00
29815;BME280;16708;50.426;7.664;2022-09-09T22:17:40;983.49;;;14.84;100.00
29815;BME280;16708;50.426;7.664;2022-09-09T22:22:35;983.55;;;15.05;100.00
29815;BME280;16708;50.426;7.664;2022-09-09T22:27:30;983.51;;;14.83;100.00
29815;BME280;16708;50.426;7.664;2022-09-09T22:32:24;983.54;;;14.85;100.00
29815;BME280;16708;50.426;7.664;2022-09-09T22:37:18;983.47;;;14.87;100.00
29815;BME280;16708;50.426;7.664;2022-09-09T22:42:12;983.50;;;14.83;100.00
29815;BME280;16708;50.426;7.664;2022-09-09T22:47:07;983.53;;;14.84;100.00
29815;BME280;16708;50.426;7.664;2022-09-09T22:52:02;983.59;;;14.66;100.00
29815;BME280;16708;50.426;7.664;2022-09-09T22:56:56;983.47;;;14.70;100.00
29815;BME280;16708;50.426;7.664;2022-09-09T23:01:51;983.38;;;14.56;100.00
29815;BME280;16708;50.426;7.664;2022-09-09T23:06:46;983.50;;;14.39;100.00
29815;BME280;16708;50.426;7.664;2022-09-09T23:11:40;983.55;;;14.51;100.00
29815;BME280;16708;50.426;7.664;2022-09-09T23:16:35;983.57;;;14.53;100.00
29815;BME280;16708;50.426;7.664;2022-09-09T23:21:30;983.56;;;14.78;100.00
29815;BME280;16708;50.426;7.664;2022-09-09T23:26:25;983.50;;;14.65;100.00
29815;BME280;16708;50.426;7.664;2022-09-09T23:31:19;983.51;;;14.57;100.00
29815;BME280;16708;50.426;7.664;2022-09-09T23:36:14;983.44;;;14.53;100.00
29815;BME280;16708;50.426;7.664;2022-09-09T23:41:07;983.46;;;14.48;100.00
29815;BME280;16708;50.426;7.664;2022-09-09T23:46:02;983.44;;;14.56;100.00
29815;BME280;16708;50.426;7.664;2022-09-09T23:50:57;983.40;;;14.38;100.00
29815;BME280;16708;50.426;7.664;2022-09-09T23:55:51;983.36;;;14.23;100.00
